Time;durP1;ratioP1;P1;durP2;ratioP2;P2;SDS_P1;SDS_P2;PMS_P1;PMS_P2;Temp;Humidity;BMP_temperature;BMP_pressure;BME280_temperature;BME280_humidity;BME280_pressure;Samples;Min_cycle;Max_cycle;Signal;HPM_P1;HPM_P2
2021/10/14 00:00:29;;;;;;;6.22;4.90;;;5.20;99.90;;;;;;2001063;70;21046;-75
2021/10/14 00:02:56;;;;;;;5.55;4.97;;;5.20;99.90;;;;;;1981355;70;21035;-75
2021/10/14 00:05:22;;;;;;;11.95;5.15;;;5.20;99.90;;;;;;1994428;70;21046;-75
2021/10/14 00:07:48;;;;;;;8.68;4.72;;;5.10;99.90;;;;;;1995200;70;21046;-75
2021/10/14 00:10:14;;;;;;;7.00;4.87;;;5.10;99.90;;;;;;1986234;70;21085;-74
2021/10/14 00:12:40;;;;;;;6.70;5.17;;;5.20;99.90;;;;;;1988776;70;21116;-75
2021/10/14 00:15:06;;;;;;;6.30;4.85;;;5.20;99.90;;;;;;2019130;70;21057;-75
2021/10/14 00:17:32;;;;;;;7.12;4.78;;;5.10;99.90;;;;;;1978966;70;21467;-75
2021/10/14 00:19:58;;;;;;;7.17;4.85;;;5.10;99.90;;;;;;2010805;70;21483;-75
2021/10/14 00:22:25;;;;;;;7.85;5.08;;;5.00;99.90;;;;;;2021758;70;21412;-75
2021/10/14 00:24:52;;;;;;;6.90;4.40;;;4.90;99.90;;;;;;1986459;70;21079;-75
2021/10/14 00:27:18;;;;;;;5.78;4.22;;;4.90;99.90;;;;;;2011755;70;21136;-76
2021/10/14 00:29:44;;;;;;;7.65;5.37;;;4.90;99.90;;;;;;1989415;70;21038;-75
2021/10/14 00:32:10;;;;;;;7.97;5.60;;;4.90;99.90;;;;;;2010307;70;21051;-75
2021/10/14 00:34:36;;;;;;;6.75;5.22;;;4.80;99.90;;;;;;1989482;70;21125;-76
2021/10/14 00:37:02;;;;;;;14.95;4.70;;;4.90;99.90;;;;;;1985230;70;21145;-75
2021/10/14 00:39:29;;;;;;;6.97;4.70;;;4.80;99.90;;;;;;2001175;70;21090;-75
2021/10/14 00:41:55;;;;;;;7.97;5.20;;;4.70;99.90;;;;;;2009264;70;21050;-74
2021/10/14 00:44:21;;;;;;;9.08;4.87;;;4.70;99.90;;;;;;2019414;70;21015;-75
2021/10/14 00:46:47;;;;;;;9.75;4.53;;;4.70;99.90;;;;;;1998130;71;21119;-75
2021/10/14 00:49:13;;;;;;;6.65;4.55;;;4.60;99.90;;;;;;1998372;70;21038;-75
2021/10/14 00:51:39;;;;;;;7.97;5.75;;;4.60;99.90;;;;;;1992235;70;21262;-75
2021/10/14 00:54:05;;;;;;;7.05;4.87;;;4.60;99.90;;;;;;1995914;70;21053;-76
2021/10/14 00:56:31;;;;;;;5.03;4.58;;;4.60;99.90;;;;;;1993423;70;21135;-75
2021/10/14 00:58:58;;;;;;;7.75;5.37;;;4.70;99.90;;;;;;2013596;70;21015;-75
2021/10/14 01:01:24;;;;;;;4.72;4.33;;;4.70;99.90;;;;;;2029822;70;21104;-75
2021/10/14 01:03:50;;;;;;;5.75;5.03;;;4.80;99.90;;;;;;1993322;70;21562;-76
2021/10/14 01:06:16;;;;;;;7.72;5.10;;;4.80;99.90;;;;;;2029137;70;21461;-75
2021/10/14 01:08:42;;;;;;;8.40;5.50;;;4.90;99.90;;;;;;2010693;70;21169;-75
2021/10/14 01:11:10;;;;;;;8.58;4.85;;;4.90;99.90;;;;;;1989470;70;21084;-75
2021/10/14 01:13:36;;;;;;;6.35;5.08;;;5.00;99.90;;;;;;2005458;70;21423;-75
2021/10/14 01:16:02;;;;;;;5.33;4.55;;;5.00;99.90;;;;;;2000052;70;21497;-75
2021/10/14 01:18:28;;;;;;;5.85;4.40;;;5.10;99.90;;;;;;2019626;70;21450;-75
2021/10/14 01:20:54;;;;;;;7.12;4.28;;;5.00;99.90;;;;;;2024097;70;21514;-75
2021/10/14 01:23:20;;;;;;;5.30;4.72;;;5.00;99.90;;;;;;1995539;70;21168;-75
2021/10/14 01:25:46;;;;;;;6.75;4.85;;;4.90;99.90;;;;;;2000020;70;21055;-75
2021/10/14 01:28:13;;;;;;;6.97;4.47;;;4.90;99.90;;;;;;2004657;70;21016;-76
2021/10/14 01:30:39;;;;;;;11.90;4.55;;;4.80;99.90;;;;;;1986687;70;21050;-74
2021/10/14 01:33:05;;;;;;;6.08;4.33;;;4.80;99.90;;;;;;1984143;70;21038;-75
2021/10/14 01:35:31;;;;;;;13.65;5.08;;;4.80;99.90;;;;;;1991272;70;21105;-75
2021/10/14 01:37:57;;;;;;;12.35;4.72;;;4.80;99.90;;;;;;2007258;70;21121;-75
2021/10/14 01:40:23;;;;;;;8.25;5.00;;;4.80;99.90;;;;;;2019587;70;21042;-76
2021/10/14 01:42:49;;;;;;;6.17;4.67;;;4.80;99.90;;;;;;1998073;70;21032;-75
2021/10/14 01:45:15;;;;;;;5.80;5.12;;;4.80;99.90;;;;;;1994580;70;21050;-75
2021/10/14 01:47:41;;;;;;;8.58;5.08;;;4.70;99.90;;;;;;1987571;70;21053;-75
2021/10/14 01:50:08;;;;;;;8.20;5.20;;;4.70;99.90;;;;;;1996250;70;21054;-75
2021/10/14 01:52:34;;;;;;;7.20;5.08;;;4.60;99.90;;;;;;2007183;70;21465;-75
2021/10/14 01:55:00;;;;;;;7.50;4.67;;;4.60;99.90;;;;;;1984107;70;21505;-74
2021/10/14 01:57:26;;;;;;;5.20;4.42;;;4.60;99.90;;;;;;2008346;70;21564;-75
2021/10/14 01:59:52;;;;;;;8.10;5.22;;;4.60;99.90;;;;;;2006778;70;21023;-75
2021/10/14 02:02:18;;;;;;;6.10;4.58;;;4.50;99.90;;;;;;1998889;70;21120;-74
2021/10/14 02:04:44;;;;;;;5.97;5.10;;;4.50;99.90;;;;;;1997336;70;21039;-75
2021/10/14 02:07:10;;;;;;;5.92;4.75;;;4.50;99.90;;;;;;2017760;70;21094;-74
2021/10/14 02:09:37;;;;;;;14.70;6.50;;;4.50;99.90;;;;;;2003145;70;21093;-74
2021/10/14 02:12:03;;;;;;;6.75;5.97;;;4.50;99.90;;;;;;1984113;70;21042;-75
2021/10/14 02:14:29;;;;;;;7.92;5.92;;;4.50;99.90;;;;;;2005668;70;21062;-74
2021/10/14 02:16:55;;;;;;;12.82;6.40;;;4.50;99.90;;;;;;2003630;70;21123;-74
2021/10/14 02:19:21;;;;;;;7.12;5.62;;;4.50;99.90;;;;;;2010914;70;21050;-75
2021/10/14 02:21:47;;;;;;;8.40;5.85;;;4.50;99.90;;;;;;1998950;70;21038;-75
2021/10/14 02:24:13;;;;;;;7.55;5.90;;;4.50;99.90;;;;;;1987970;70;21054;-75
2021/10/14 02:26:39;;;;;;;9.80;5.37;;;4.40;99.90;;;;;;1993409;70;21179;-75
2021/10/14 02:29:12;;;;;;;6.28;4.87;;;4.50;99.90;;;;;;2002680;70;21415;-75
2021/10/14 02:31:33;;;;;;;6.95;5.20;;;4.50;99.90;;;;;;2004755;70;21156;-75
2021/10/14 02:33:59;;;;;;;7.67;5.15;;;4.40;99.90;;;;;;2016840;70;21053;-75
2021/10/14 02:36:26;;;;;;;5.12;4.72;;;4.40;99.90;;;;;;2014480;70;21164;-75
2021/10/14 02:38:52;;;;;;;6.93;5.13;;;4.40;99.90;;;;;;2021655;70;21054;-75
2021/10/14 02:41:20;;;;;;;7.75;5.03;;;4.40;99.90;;;;;;1990676;70;21054;-76
2021/10/14 02:43:46;;;;;;;7.05;5.42;;;4.30;99.90;;;;;;1989630;70;21156;-75
2021/10/14 02:46:12;;;;;;;8.60;5.80;;;4.30;99.90;;;;;;1989989;70;21108;-74
2021/10/14 02:48:38;;;;;;;7.80;5.83;;;4.30;99.90;;;;;;2011338;70;21112;-75
2021/10/14 02:51:05;;;;;;;11.08;5.47;;;4.20;99.90;;;;;;2001324;70;21170;-75
2021/10/14 02:53:31;;;;;;;7.33;5.33;;;4.20;99.90;;;;;;2001648;70;21059;-75
2021/10/14 02:56:00;;;;;;;8.55;5.65;;;4.20;99.90;;;;;;2000253;70;21111;-75
2021/10/14 02:58:26;;;;;;;10.35;5.75;;;4.20;99.90;;;;;;1997175;70;21105;-75
2021/10/14 03:00:52;;;;;;;19.17;5.42;;;4.20;99.90;;;;;;2021978;70;21120;-75
2021/10/14 03:03:18;;;;;;;7.15;5.55;;;4.20;99.90;;;;;;2006582;70;21136;-75
2021/10/14 03:05:44;;;;;;;6.75;4.83;;;4.20;99.90;;;;;;2024198;70;21116;-75
2021/10/14 03:08:10;;;;;;;6.67;4.75;;;4.20;99.90;;;;;;2008898;70;21136;-75
2021/10/14 03:10:36;;;;;;;6.03;4.60;;;4.20;99.90;;;;;;2016954;70;21019;-74
2021/10/14 03:13:03;;;;;;;7.15;5.17;;;4.10;99.90;;;;;;2024566;70;21019;-75
2021/10/14 03:15:29;;;;;;;6.70;5.22;;;4.00;99.90;;;;;;2005532;70;21109;-76
2021/10/14 03:17:55;;;;;;;6.50;5.12;;;4.00;99.90;;;;;;2006565;70;21058;-74
2021/10/14 03:20:21;;;;;;;9.50;5.30;;;4.00;99.90;;;;;;2023737;70;21098;-75
2021/10/14 03:22:47;;;;;;;6.47;4.75;;;3.90;99.90;;;;;;1998738;70;21123;-74
2021/10/14 03:25:13;;;;;;;5.15;4.58;;;4.00;99.90;;;;;;2012888;70;21062;-75
2021/10/14 03:27:39;;;;;;;7.33;4.90;;;4.10;99.90;;;;;;2012310;70;21170;-75
2021/10/14 03:30:05;;;;;;;5.40;4.90;;;4.10;99.90;;;;;;2004325;70;21556;-74
2021/10/14 03:32:32;;;;;;;9.05;5.80;;;4.10;99.90;;;;;;2018684;70;21532;-75
2021/10/14 03:34:58;;;;;;;15.58;5.28;;;4.20;99.90;;;;;;2007192;70;21568;-74
2021/10/14 03:37:24;;;;;;;7.45;4.42;;;4.10;99.90;;;;;;1998540;70;21123;-78
2021/10/14 03:39:50;;;;;;;7.08;5.33;;;4.10;99.90;;;;;;2007714;70;21078;-78
2021/10/14 03:42:17;;;;;;;6.92;5.30;;;4.10;99.90;;;;;;1989796;70;21095;-79
2021/10/14 03:44:43;;;;;;;5.40;4.90;;;4.10;99.90;;;;;;1990021;70;21128;-78
2021/10/14 03:47:09;;;;;;;5.42;4.70;;;4.00;99.90;;;;;;1989842;70;21373;-78
2021/10/14 03:49:35;;;;;;;6.05;4.78;;;4.00;99.90;;;;;;2003633;70;21088;-77
2021/10/14 03:52:01;;;;;;;5.00;4.47;;;4.00;99.90;;;;;;2007997;70;21043;-77
2021/10/14 03:54:27;;;;;;;6.97;4.70;;;4.00;99.90;;;;;;2003079;70;21536;-78
2021/10/14 03:56:53;;;;;;;8.40;4.45;;;3.90;99.90;;;;;;2016618;70;21037;-78
2021/10/14 03:59:20;;;;;;;5.22;4.40;;;3.80;99.90;;;;;;1989963;70;21050;-79
2021/10/14 04:01:46;;;;;;;7.20;4.53;;;3.80;99.90;;;;;;2015380;70;21042;-78
2021/10/14 04:04:12;;;;;;;10.10;4.37;;;3.80;99.90;;;;;;2000369;70;21167;-78
2021/10/14 04:06:38;;;;;;;6.70;4.72;;;3.80;99.90;;;;;;2003580;70;21081;-78
2021/10/14 04:09:04;;;;;;;7.80;5.05;;;3.80;99.90;;;;;;2001164;70;21041;-78
2021/10/14 04:11:30;;;;;;;9.15;4.70;;;3.70;99.90;;;;;;1999912;70;21123;-78
2021/10/14 04:13:56;;;;;;;6.37;4.30;;;3.70;99.90;;;;;;2006434;70;21051;-78
2021/10/14 04:16:22;;;;;;;6.28;4.60;;;3.80;99.90;;;;;;2017641;70;21194;-79
2021/10/14 04:18:48;;;;;;;9.15;4.90;;;3.80;99.90;;;;;;2018581;70;21137;-78
2021/10/14 04:21:15;;;;;;;6.12;4.85;;;3.70;99.90;;;;;;1997083;70;21058;-78
2021/10/14 04:23:43;;;;;;;5.75;5.05;;;3.70;99.90;;;;;;1996597;70;21445;-78
2021/10/14 04:26:09;;;;;;;6.17;4.75;;;3.80;99.90;;;;;;2014044;70;21080;-78
2021/10/14 04:28:35;;;;;;;6.97;4.85;;;3.80;99.90;;;;;;2023914;70;21047;-78
2021/10/14 04:31:01;;;;;;;8.78;5.70;;;3.90;99.90;;;;;;2023321;70;21129;-78
2021/10/14 04:33:29;;;;;;;9.98;5.35;;;4.00;99.90;;;;;;2020104;70;21147;-79
2021/10/14 04:35:55;;;;;;;5.62;5.08;;;4.00;99.90;;;;;;1997442;70;21156;-80
2021/10/14 04:38:21;;;;;;;5.80;4.85;;;4.10;99.90;;;;;;1989766;70;21046;-79
2021/10/14 04:40:47;;;;;;;14.25;4.95;;;4.10;99.90;;;;;;1995947;70;21055;-79
2021/10/14 04:43:14;;;;;;;5.35;4.85;;;4.10;99.90;;;;;;2020711;70;21049;-79
2021/10/14 04:45:40;;;;;;;10.48;4.90;;;4.20;99.90;;;;;;2022708;70;21086;-79
2021/10/14 04:48:06;;;;;;;6.33;5.17;;;4.30;99.90;;;;;;2019083;70;21051;-79
2021/10/14 04:50:32;;;;;;;11.63;5.67;;;4.30;99.90;;;;;;1990000;70;21046;-79
2021/10/14 04:52:58;;;;;;;7.42;4.70;;;4.40;99.90;;;;;;1993737;70;21249;-79
2021/10/14 04:55:24;;;;;;;7.40;4.70;;;4.40;99.90;;;;;;1997359;70;21038;-79
2021/10/14 04:57:50;;;;;;;6.90;5.08;;;4.40;99.90;;;;;;1994357;70;21050;-79
2021/10/14 05:00:17;;;;;;;12.78;5.40;;;4.40;99.90;;;;;;2004293;70;21165;-79
2021/10/14 05:02:43;;;;;;;15.65;5.60;;;4.30;99.90;;;;;;2019317;70;21136;-79
2021/10/14 05:05:09;;;;;;;8.53;5.03;;;4.40;99.90;;;;;;2006938;70;21527;-80
2021/10/14 05:07:35;;;;;;;15.05;6.30;;;4.40;99.90;;;;;;1992105;71;21176;-80
2021/10/14 05:10:01;;;;;;;11.08;5.70;;;4.30;99.90;;;;;;1985063;70;21127;-80
2021/10/14 05:12:27;;;;;;;7.40;4.85;;;4.40;99.90;;;;;;2006717;70;21091;-79
2021/10/14 05:14:53;;;;;;;7.33;4.72;;;4.40;99.90;;;;;;1994916;70;21035;-81
2021/10/14 05:17:19;;;;;;;11.38;6.30;;;4.40;99.90;;;;;;1989871;70;21055;-81
2021/10/14 05:19:46;;;;;;;10.65;6.15;;;4.50;99.90;;;;;;2013748;70;21046;-80
2021/10/14 05:22:12;;;;;;;7.47;5.58;;;4.50;99.90;;;;;;1993252;70;21213;-81
2021/10/14 05:24:38;;;;;;;9.90;6.15;;;4.50;99.90;;;;;;1987507;70;21046;-80
2021/10/14 05:27:04;;;;;;;14.50;5.47;;;4.60;99.90;;;;;;1997335;70;21006;-82
2021/10/14 05:29:30;;;;;;;7.62;4.78;;;4.50;99.90;;;;;;2000590;70;21123;-78
2021/10/14 05:31:56;;;;;;;7.12;4.70;;;4.60;99.90;;;;;;1989851;70;21048;-77
2021/10/14 05:34:22;;;;;;;10.38;5.20;;;4.50;99.90;;;;;;1985981;70;21417;-78
2021/10/14 05:36:48;;;;;;;8.08;4.50;;;4.60;99.90;;;;;;1999052;70;21054;-77
2021/10/14 05:39:14;;;;;;;7.58;5.10;;;4.60;99.90;;;;;;2005829;70;21454;-77
2021/10/14 05:41:41;;;;;;;6.25;4.97;;;4.60;99.90;;;;;;1991749;70;21419;-78
2021/10/14 05:44:07;;;;;;;12.80;4.70;;;4.50;99.90;;;;;;1992741;70;21454;-78
2021/10/14 05:46:33;;;;;;;8.10;4.53;;;4.50;99.90;;;;;;2006383;70;21120;-77
2021/10/14 05:48:59;;;;;;;11.53;4.83;;;4.50;99.90;;;;;;1996763;70;21045;-76
2021/10/14 05:51:25;;;;;;;5.25;4.42;;;4.60;99.90;;;;;;1988637;70;21111;-76
2021/10/14 05:53:51;;;;;;;10.43;4.70;;;4.50;99.90;;;;;;1991217;70;21047;-76
2021/10/14 05:56:17;;;;;;;5.15;4.22;;;4.60;99.90;;;;;;1986893;70;21111;-79
2021/10/14 05:58:44;;;;;;;5.78;4.25;;;4.60;99.90;;;;;;1994489;70;21028;-76
2021/10/14 06:01:10;;;;;;;6.72;4.87;;;4.70;99.90;;;;;;2016803;70;21054;-76
2021/10/14 06:03:36;;;;;;;11.75;4.65;;;4.60;99.90;;;;;;1986992;71;21507;-77
2021/10/14 06:06:02;;;;;;;6.30;5.05;;;4.70;99.90;;;;;;2005291;70;21059;-77
2021/10/14 06:08:29;;;;;;;7.53;5.03;;;4.70;99.90;;;;;;1997193;70;21050;-77
2021/10/14 06:10:55;;;;;;;9.50;5.33;;;4.80;99.90;;;;;;1998794;70;21116;-78
2021/10/14 06:13:22;;;;;;;14.50;5.12;;;4.90;99.90;;;;;;1995957;70;21557;-78
2021/10/14 06:15:48;;;;;;;14.68;4.90;;;4.90;99.90;;;;;;1988426;70;21105;-78
2021/10/14 06:18:14;;;;;;;9.48;5.22;;;4.90;99.90;;;;;;1994235;70;21132;-78
2021/10/14 06:20:40;;;;;;;6.60;5.45;;;4.90;99.90;;;;;;1990512;70;21050;-77
2021/10/14 06:23:06;;;;;;;16.70;6.00;;;4.90;99.90;;;;;;1985725;70;21045;-78
2021/10/14 06:25:32;;;;;;;8.78;4.67;;;5.00;99.90;;;;;;2029741;70;21054;-78
2021/10/14 06:27:58;;;;;;;10.15;5.12;;;5.00;99.90;;;;;;1984481;70;21042;-78
2021/10/14 06:30:24;;;;;;;9.68;5.60;;;5.10;99.90;;;;;;2001548;70;21108;-78
2021/10/14 06:32:51;;;;;;;11.65;4.92;;;5.10;99.90;;;;;;2010483;70;21011;-78
2021/10/14 06:35:17;;;;;;;6.03;4.47;;;5.20;99.90;;;;;;1987380;70;21197;-76
2021/10/14 06:37:43;;;;;;;10.90;4.42;;;5.30;99.90;;;;;;2010883;70;21112;-75
2021/10/14 06:40:09;;;;;;;8.13;4.28;;;5.40;99.90;;;;;;1999540;70;21046;-79
2021/10/14 06:42:35;;;;;;;6.33;4.42;;;5.40;99.90;;;;;;2011005;70;21049;-79
2021/10/14 06:45:01;;;;;;;13.05;4.33;;;5.40;99.90;;;;;;1991157;70;21015;-80
2021/10/14 06:47:27;;;;;;;7.85;5.08;;;5.30;99.90;;;;;;2016655;70;21024;-79
2021/10/14 06:49:54;;;;;;;18.82;7.05;;;5.40;99.90;;;;;;2020052;70;21112;-77
2021/10/14 06:52:20;;;;;;;8.83;5.08;;;5.50;99.90;;;;;;1992333;70;21055;-79
2021/10/14 06:54:46;;;;;;;9.65;4.40;;;5.60;99.90;;;;;;1995819;70;21168;-78
2021/10/14 06:57:12;;;;;;;5.33;3.83;;;5.50;99.90;;;;;;2000553;70;21058;-78
2021/10/14 06:59:38;;;;;;;13.45;4.92;;;5.60;99.90;;;;;;2011690;70;21047;-79
2021/10/14 07:02:04;;;;;;;6.35;4.83;;;5.70;99.90;;;;;;2005125;70;21054;-79
2021/10/14 07:04:30;;;;;;;8.53;4.42;;;5.70;99.90;;;;;;1999888;70;21089;-78
2021/10/14 07:06:56;;;;;;;9.88;4.42;;;5.70;99.90;;;;;;1991749;70;21018;-77
2021/10/14 07:09:23;;;;;;;5.45;4.42;;;5.70;99.90;;;;;;2029013;70;21043;-77
2021/10/14 07:11:54;;;;;;;7.30;4.05;;;5.80;99.90;;;;;;2011094;70;21050;-79
2021/10/14 07:14:20;;;;;;;5.15;3.60;;;5.90;99.90;;;;;;2008882;70;21451;-75
2021/10/14 07:16:46;;;;;;;5.97;4.28;;;6.10;99.90;;;;;;2019617;70;21127;-76
2021/10/14 07:19:12;;;;;;;6.00;3.80;;;6.30;99.90;;;;;;1986084;70;21144;-74
2021/10/14 07:21:38;;;;;;;8.23;3.98;;;6.30;99.90;;;;;;2008805;70;21046;-75
2021/10/14 07:24:05;;;;;;;8.58;3.70;;;6.30;99.90;;;;;;2009852;70;21188;-76
2021/10/14 07:26:31;;;;;;;7.17;3.47;;;6.40;99.90;;;;;;2001033;70;21109;-76
2021/10/14 07:28:57;;;;;;;4.60;3.80;;;6.60;99.90;;;;;;1986884;70;21031;-76
2021/10/14 07:31:23;;;;;;;4.30;3.72;;;6.50;99.90;;;;;;1982405;70;21112;-76
2021/10/14 07:33:49;;;;;;;10.25;3.30;;;6.30;99.90;;;;;;2010820;70;22591;-76
2021/10/14 07:36:15;;;;;;;4.50;4.00;;;6.40;99.90;;;;;;1991281;70;21534;-76
2021/10/14 07:38:41;;;;;;;5.00;3.72;;;6.40;99.90;;;;;;1989683;70;21477;-76
2021/10/14 07:41:08;;;;;;;3.85;3.35;;;6.40;99.90;;;;;;1993902;70;21463;-76
2021/10/14 07:43:34;;;;;;;4.78;3.70;;;6.60;99.90;;;;;;2028490;70;21058;-77
2021/10/14 07:46:01;;;;;;;6.60;3.62;;;6.60;99.90;;;;;;1963928;71;21026;-77
2021/10/14 07:48:27;;;;;;;4.65;3.75;;;6.70;99.90;;;;;;2026137;70;21042;-76
2021/10/14 07:50:53;;;;;;;7.15;3.52;;;7.00;99.90;;;;;;1995126;70;21123;-76
2021/10/14 07:53:19;;;;;;;4.42;3.10;;;7.20;99.90;;;;;;1998526;70;21315;-76
2021/10/14 07:55:45;;;;;;;5.22;2.87;;;7.10;99.90;;;;;;2003547;70;21046;-77
2021/10/14 07:58:11;;;;;;;4.35;3.40;;;6.90;99.90;;;;;;2003121;70;21046;-77
2021/10/14 08:00:38;;;;;;;3.58;3.15;;;7.00;99.90;;;;;;2011232;70;21042;-76
2021/10/14 08:03:04;;;;;;;4.15;3.10;;;7.00;99.90;;;;;;2003888;70;21067;-76
2021/10/14 08:05:30;;;;;;;3.95;3.40;;;7.10;99.90;;;;;;2002362;70;21113;-77
2021/10/14 08:07:57;;;;;;;3.17;2.87;;;7.20;99.90;;;;;;2024448;70;21615;-77
2021/10/14 08:10:24;;;;;;;4.50;3.70;;;7.50;99.90;;;;;;2003344;70;21120;-78
2021/10/14 08:12:50;;;;;;;6.62;3.65;;;7.70;99.90;;;;;;1986963;70;21045;-78
2021/10/14 08:15:16;;;;;;;7.72;3.08;;;7.80;99.90;;;;;;1990574;70;21119;-77
2021/10/14 08:17:42;;;;;;;5.55;3.42;;;7.90;99.90;;;;;;2002739;70;21135;-77
2021/10/14 08:20:08;;;;;;;5.87;3.30;;;8.10;99.90;;;;;;1988966;70;21020;-77
2021/10/14 08:22:38;;;;;;;5.67;3.25;;;8.40;99.90;;;;;;1996127;70;21519;-77
2021/10/14 08:25:02;;;;;;;4.92;3.12;;;8.40;99.90;;;;;;1987417;70;21087;-77
2021/10/14 08:27:28;;;;;;;3.35;2.90;;;8.40;99.90;;;;;;2024233;70;21046;-76
2021/10/14 08:29:54;;;;;;;3.62;3.08;;;8.50;99.90;;;;;;2015511;70;21127;-76
2021/10/14 08:32:20;;;;;;;5.55;3.92;;;8.60;99.90;;;;;;1991936;70;21054;-76
2021/10/14 08:34:46;;;;;;;3.33;2.80;;;8.90;99.90;;;;;;2007418;70;21506;-77
2021/10/14 08:37:13;;;;;;;8.28;3.50;;;8.90;99.90;;;;;;1998755;70;21531;-77
2021/10/14 08:39:39;;;;;;;6.50;3.50;;;9.10;99.90;;;;;;1988400;70;21516;-76
2021/10/14 08:42:05;;;;;;;7.45;3.30;;;9.40;99.90;;;;;;1985261;70;21515;-77
2021/10/14 08:44:31;;;;;;;5.45;3.30;;;9.30;99.90;;;;;;1990785;70;21039;-77
2021/10/14 08:46:57;;;;;;;6.12;3.20;;;9.30;99.90;;;;;;2000696;71;21012;-77
2021/10/14 08:49:23;;;;;;;5.45;3.50;;;9.40;99.90;;;;;;2030237;70;21246;-74
2021/10/14 08:51:49;;;;;;;5.87;3.10;;;9.70;99.90;;;;;;2010597;70;21043;-75
2021/10/14 08:54:15;;;;;;;4.97;3.10;;;10.00;99.90;;;;;;1991117;70;21096;-75
2021/10/14 08:56:42;;;;;;;5.35;3.33;;;10.10;99.90;;;;;;1995348;70;21049;-75
2021/10/14 08:59:08;;;;;;;6.50;3.80;;;10.30;99.90;;;;;;2002832;70;21019;-75
2021/10/14 09:01:34;;;;;;;6.25;3.98;;;10.00;99.90;;;;;;2008358;70;21067;-74
2021/10/14 09:04:00;;;;;;;6.28;3.83;;;10.50;99.90;;;;;;2006087;70;21205;-75
2021/10/14 09:06:26;;;;;;;4.08;3.33;;;10.70;99.90;;;;;;1989002;70;21168;-77
2021/10/14 09:08:52;;;;;;;4.78;3.65;;;10.70;99.90;;;;;;2012651;70;21094;-77
2021/10/14 09:11:19;;;;;;;7.50;2.75;;;10.80;99.90;;;;;;1992126;70;21482;-77
2021/10/14 09:13:45;;;;;;;8.10;5.37;;;11.00;99.90;;;;;;2008686;70;21059;-77
2021/10/14 09:16:11;;;;;;;6.80;3.00;;;11.00;99.90;;;;;;2014781;70;21156;-78
2021/10/14 09:18:37;;;;;;;2.98;2.60;;;11.40;99.90;;;;;;1997266;70;21054;-78
2021/10/14 09:21:04;;;;;;;5.30;2.95;;;11.90;99.90;;;;;;1986842;70;21015;-77
2021/10/14 09:23:30;;;;;;;4.70;3.08;;;12.00;99.90;;;;;;2004558;70;21135;-78
2021/10/14 09:25:56;;;;;;;2.75;2.55;;;11.60;99.90;;;;;;1991609;70;21482;-75
2021/10/14 09:28:22;;;;;;;4.60;2.83;;;11.60;99.90;;;;;;1997750;70;21769;-76
2021/10/14 09:30:48;;;;;;;2.58;2.37;;;11.80;99.90;;;;;;1992185;70;21386;-76
2021/10/14 09:33:14;;;;;;;4.75;2.40;;;12.20;99.90;;;;;;2010000;70;21461;-75
2021/10/14 09:35:40;;;;;;;6.60;3.52;;;12.40;99.90;;;;;;1997495;70;21493;-75
2021/10/14 09:38:06;;;;;;;3.95;2.55;;;12.90;99.90;;;;;;2022153;70;21046;-75
2021/10/14 09:40:33;;;;;;;6.12;2.72;;;12.60;99.90;;;;;;2031479;70;21027;-75
2021/10/14 09:43:04;;;;;;;3.47;2.50;;;12.50;99.90;;;;;;2023174;70;21043;-75
2021/10/14 09:45:30;;;;;;;4.50;2.55;;;12.80;99.90;;;;;;1989640;70;21092;-75
2021/10/14 09:47:57;;;;;;;4.33;2.12;;;13.00;99.90;;;;;;2008841;70;21392;-75
2021/10/14 09:50:26;;;;;;;5.22;2.58;;;13.00;99.90;;;;;;1993415;70;21135;-75
2021/10/14 09:52:50;;;;;;;2.85;2.42;;;12.80;99.90;;;;;;2012044;70;21156;-74
2021/10/14 09:55:19;;;;;;;3.42;2.80;;;13.30;99.90;;;;;;1990340;70;21054;-75
2021/10/14 09:57:44;;;;;;;4.10;2.52;;;13.30;99.90;;;;;;1995183;70;21273;-74
2021/10/14 10:00:11;;;;;;;4.90;2.65;;;12.90;99.90;;;;;;1998995;70;21164;-74
2021/10/14 10:02:37;;;;;;;4.15;2.50;;;12.60;99.90;;;;;;1982049;70;21565;-74
2021/10/14 10:05:03;;;;;;;3.33;2.45;;;12.80;99.90;;;;;;1991952;70;21438;-74
2021/10/14 10:07:29;;;;;;;3.92;2.72;;;13.10;99.90;;;;;;1981742;70;21515;-74
2021/10/14 10:09:55;;;;;;;5.55;3.20;;;13.30;99.90;;;;;;1995312;70;21043;-75
2021/10/14 10:12:21;;;;;;;6.65;2.72;;;13.80;99.90;;;;;;2007507;70;21546;-74
2021/10/14 10:14:47;;;;;;;3.72;2.25;;;14.30;99.90;;;;;;1998273;70;21482;-75
2021/10/14 10:17:16;;;;;;;4.80;1.90;;;14.20;99.90;;;;;;2016134;70;21046;-74
2021/10/14 10:19:41;;;;;;;4.45;3.90;;;14.30;99.90;;;;;;2018103;70;21087;-74
2021/10/14 10:22:07;;;;;;;4.03;2.27;;;14.70;99.90;;;;;;2007265;70;21045;-73
2021/10/14 10:24:34;;;;;;;4.67;2.10;;;14.60;99.90;;;;;;1989017;70;21063;-74
2021/10/14 10:27:01;;;;;;;4.22;2.30;;;14.90;99.90;;;;;;2013035;70;21019;-75
2021/10/14 10:29:27;;;;;;;2.20;1.90;;;15.50;99.90;;;;;;1995308;70;21046;-74
2021/10/14 10:32:00;;;;;;;2.33;2.02;;;16.20;99.90;;;;;;2010931;70;21177;-73
2021/10/14 10:34:22;;;;;;;3.50;1.90;;;16.40;99.90;;;;;;2004200;70;21152;-75
2021/10/14 10:36:51;;;;;;;3.92;2.40;;;16.10;99.90;;;;;;2017363;70;21118;-75
2021/10/14 10:39:16;;;;;;;2.22;1.87;;;15.30;99.90;;;;;;1988867;70;21494;-73
2021/10/14 10:41:42;;;;;;;4.35;1.98;;;14.90;99.90;;;;;;1999611;70;21590;-85
2021/10/14 10:44:08;;;;;;;9.78;2.37;;;15.00;99.90;;;;;;2011203;70;21540;-73
2021/10/14 10:46:34;;;;;;;3.12;1.85;;;15.00;99.90;;;;;;2009568;70;21020;-75
2021/10/14 10:49:01;;;;;;;3.15;1.62;;;15.00;99.90;;;;;;2006878;70;21112;-75
2021/10/14 10:51:27;;;;;;;3.85;1.85;;;15.90;99.90;;;;;;2003658;70;21050;-75
2021/10/14 10:53:53;;;;;;;7.53;1.90;;;16.70;99.90;;;;;;2006115;70;21018;-75
2021/10/14 10:56:19;;;;;;;2.58;1.65;;;17.50;99.90;;;;;;1999809;70;21169;-76
2021/10/14 10:58:46;;;;;;;3.27;1.90;;;17.70;99.90;;;;;;2011537;70;21180;-75
2021/10/14 11:01:12;;;;;;;1.75;1.35;;;17.80;99.90;;;;;;2008347;70;21058;-77
2021/10/14 11:03:39;;;;;;;8.85;1.87;;;17.70;99.90;;;;;;2003011;70;21063;-76
2021/10/14 11:06:08;;;;;;;5.92;1.32;;;18.10;99.90;;;;;;1985722;70;21120;-77
2021/10/14 11:08:34;;;;;;;6.33;2.33;;;18.20;99.90;;;;;;1994367;70;21423;-77
2021/10/14 11:11:00;;;;;;;2.92;1.92;;;18.30;99.90;;;;;;1993073;70;21050;-77
2021/10/14 11:13:30;;;;;;;3.37;1.87;;;18.20;99.90;;;;;;1995922;70;21042;-77
2021/10/14 11:15:54;;;;;;;3.02;1.80;;;18.10;99.90;;;;;;2000988;70;21164;-77
2021/10/14 11:18:20;;;;;;;3.25;1.80;;;18.00;99.90;;;;;;1980378;70;21114;-77
2021/10/14 11:20:46;;;;;;;4.47;1.70;;;17.00;99.90;;;;;;2000958;70;21051;-77
2021/10/14 11:23:12;;;;;;;5.78;2.10;;;16.50;99.90;;;;;;2017145;70;21190;-76
2021/10/14 11:25:38;;;;;;;2.65;1.82;;;16.10;99.90;;;;;;2023884;70;21065;-74
2021/10/14 11:28:04;;;;;;;4.12;1.70;;;15.90;99.90;;;;;;1995193;70;21015;-76
2021/10/14 11:30:31;;;;;;;4.15;1.80;;;16.20;99.90;;;;;;1992920;70;21120;-77
2021/10/14 11:33:03;;;;;;;8.38;2.15;;;17.00;99.90;;;;;;2004689;70;21128;-79
2021/10/14 11:35:27;;;;;;;2.15;1.72;;;17.30;99.90;;;;;;1996523;70;21435;-79
2021/10/14 11:37:52;;;;;;;5.67;1.60;;;17.60;99.90;;;;;;1992231;70;21161;-79
2021/10/14 11:40:18;;;;;;;11.20;1.92;;;18.30;99.90;;;;;;1986529;70;22513;-79
2021/10/14 11:42:44;;;;;;;3.80;1.82;;;19.20;99.90;;;;;;1987963;70;21105;-79
2021/10/14 11:45:11;;;;;;;2.58;1.67;;;19.00;99.90;;;;;;2016152;70;21055;-80
2021/10/14 11:47:37;;;;;;;2.87;1.85;;;19.00;99.90;;;;;;1985245;70;21056;-80
2021/10/14 11:50:03;;;;;;;3.42;1.70;;;19.00;99.90;;;;;;1998816;70;21238;-80
2021/10/14 11:52:29;;;;;;;2.98;1.55;;;19.30;99.90;;;;;;2007486;70;21492;-80
2021/10/14 11:54:55;;;;;;;2.75;1.40;;;19.30;99.90;;;;;;1992309;71;21128;-80
2021/10/14 11:57:21;;;;;;;2.70;1.45;;;19.40;99.90;;;;;;2009041;70;21092;-80
2021/10/14 11:59:47;;;;;;;6.92;2.08;;;19.40;99.90;;;;;;1992287;70;21141;-80
2021/10/14 12:02:14;;;;;;;2.83;1.45;;;19.10;99.90;;;;;;1995534;70;21201;-79
2021/10/14 12:04:40;;;;;;;4.30;2.05;;;18.70;99.90;;;;;;1996890;70;21050;-80
2021/10/14 12:07:06;;;;;;;5.42;1.52;;;18.40;99.90;;;;;;2001601;70;21145;-78
2021/10/14 12:09:32;;;;;;;3.77;1.45;;;18.60;99.90;;;;;;1998003;70;21058;-82
2021/10/14 12:11:58;;;;;;;3.75;1.70;;;18.30;99.90;;;;;;2005166;70;21065;-79
2021/10/14 12:14:24;;;;;;;4.30;1.95;;;17.60;99.90;;;;;;2020382;70;21689;-81
2021/10/14 12:16:50;;;;;;;4.40;1.98;;;17.20;99.90;;;;;;2025321;70;21116;-78
2021/10/14 12:19:17;;;;;;;4.35;1.70;;;17.30;99.90;;;;;;2009236;70;21399;-80
2021/10/14 12:21:44;;;;;;;1.52;1.40;;;17.10;99.90;;;;;;2024062;70;21114;-77
2021/10/14 12:24:11;;;;;;;3.77;1.52;;;16.90;99.90;;;;;;2016454;70;21173;-80
2021/10/14 12:26:37;;;;;;;2.75;1.77;;;17.10;99.90;;;;;;2013099;70;21055;-79
2021/10/14 12:29:03;;;;;;;3.12;1.85;;;17.10;99.90;;;;;;1990220;70;21046;-79
2021/10/14 12:31:29;;;;;;;6.17;1.82;;;16.70;99.90;;;;;;1999297;70;21047;-77
2021/10/14 12:33:55;;;;;;;4.22;1.80;;;16.80;99.90;;;;;;2011305;70;21097;-78
2021/10/14 12:36:21;;;;;;;3.67;1.52;;;17.30;99.90;;;;;;2021457;70;21130;-77
2021/10/14 12:38:48;;;;;;;1.98;1.40;;;17.40;99.90;;;;;;2000836;70;21070;-79
2021/10/14 12:41:15;;;;;;;2.02;1.12;;;18.00;99.90;;;;;;2013456;70;21062;-82
2021/10/14 12:43:45;;;;;;;1.80;1.20;;;18.50;99.90;;;;;;2021604;70;21039;-82
2021/10/14 12:46:12;;;;;;;4.05;1.40;;;18.80;99.90;;;;;;2009809;70;21517;-80